Terminal Aerodrome Forecast
Issued by NWS Medford, OR

Home | Current Version | Previous Version | Text Only | Print | Product List | Glossary On
Versions: 1 2 3 4 5 6 7 8 9 10 11 12
543
FTUS46 KMFR 031742
TAFMFR
TAF
KMFR 031742Z 0318/0418 00000KT P6SM BKN090
     FM032300 32010KT P6SM VCTS SCT040CB BKN090
     FM040300 33004KT P6SM -SHRA OVC030
     FM040600 VRB03KT P6SM SCT030 BKN050=

USA.gov is the U.S. government's official web portal to all federal, state and local government web resources and services.